Terminal Aerodrome Forecast
Issued by NWS

Home | Current Version | Previous Version | Text Only | Print | Product List | Glossary On
Versions: 1 2 3 4 5 6 7 8 9 10 11 12 13
000
FTUS44 KOUN 281124
TAFCSM
TAF
KCSM 281124Z 2812/2912 04008KT P6SM VCSH BKN100
     FM282100 08007KT P6SM SCT100 BKN250 PROB30 2903/2909 3SM TSRA
      BKN040CB=

USA.gov is the U.S. government's official web portal to all federal, state and local government web resources and services.